Main page
METAR-TAF:

METAR-TAF

Airports :

Cherif Al Idrissi Airport

Al Hoceima, Morocco

latitude: 35-11N, longitude: 003-51W, elevation: 27 m

Current weather observation

The report was made 17 minutes ago, at 06:00 UTC
Wind 6 kt from the South
Temperature 7°C
Humidity 76%
Pressure 1028 hPa
Visibility 10 km or more
no clouds below 1500 m and no cumulonimbus

METAR: GMTA 170600Z 17006KT CAVOK 07/03 Q1028 NOSIG

Time: 07:17 (06:17 UTC)

Forecast

The report was made 1 hour and 17 minutes ago, at 05:00 UTC
Forecast valid from 17 at 06 UTC to 18 at 12 UTC
Wind 6 kt from the South/Southeast
Visibility 10 km or more
no clouds below 1500 m and no cumulonimbus

TAF: GMTA 170500Z 1706/1812 16006KT CAVOK

Weather observations and forecasts of more than 4000 airports (METAR and TAF reports).

The available stations are represented by yellow and red dots on the map.

Hover mouse over dot to see the name of the station.

Then click to see weather observations and forecasts.

To change the map : click on the green buttons with a black cross to zoom in, on the green button with a dash to zoom out, or on the green arrows for adjacent maps.


METAR-TAF: